sensor_id;sensor_type;location;lat;lon;timestamp;temperature;humidity
32215;DHT22;18708;53.124;23.190;2023-07-20T00:01:06;15.40;99.90
32215;DHT22;18708;53.124;23.190;2023-07-20T00:03:32;15.30;99.90
32215;DHT22;18708;53.124;23.190;2023-07-20T00:05:57;15.40;99.90
32215;DHT22;18708;53.124;23.190;2023-07-20T00:08:23;15.40;99.90
32215;DHT22;18708;53.124;23.190;2023-07-20T00:10:48;15.30;99.90
32215;DHT22;18708;53.124;23.190;2023-07-20T00:13:14;15.30;99.90
32215;DHT22;18708;53.124;23.190;2023-07-20T00:15:41;15.20;99.90
32215;DHT22;18708;53.124;23.190;2023-07-20T00:18:07;15.20;99.90
32215;DHT22;18708;53.124;23.190;2023-07-20T00:20:32;15.10;99.90
32215;DHT22;18708;53.124;23.190;2023-07-20T00:22:58;15.20;99.90
32215;DHT22;18708;53.124;23.190;2023-07-20T00:25:24;15.10;99.90
32215;DHT22;18708;53.124;23.190;2023-07-20T00:27:49;15.20;99.90
32215;DHT22;18708;53.124;23.190;2023-07-20T00:30:15;15.20;99.90
32215;DHT22;18708;53.124;23.190;2023-07-20T00:32:41;15.30;99.90
32215;DHT22;18708;53.124;23.190;2023-07-20T00:35:07;15.30;99.90
32215;DHT22;18708;53.124;23.190;2023-07-20T00:37:33;15.30;99.90
32215;DHT22;18708;53.124;23.190;2023-07-20T00:39:58;15.20;99.90
32215;DHT22;18708;53.124;23.190;2023-07-20T00:42:24;15.20;99.90
32215;DHT22;18708;53.124;23.190;2023-07-20T00:44:49;15.20;99.90
32215;DHT22;18708;53.124;23.190;2023-07-20T00:47:15;15.20;99.90
32215;DHT22;18708;53.124;23.190;2023-07-20T00:49:40;15.00;99.90
32215;DHT22;18708;53.124;23.190;2023-07-20T00:52:06;15.20;99.90
32215;DHT22;18708;53.124;23.190;2023-07-20T00:54:32;15.20;99.90
32215;DHT22;18708;53.124;23.190;2023-07-20T00:56:58;15.20;99.90
32215;DHT22;18708;53.124;23.190;2023-07-20T00:59:24;15.30;99.90
32215;DHT22;18708;53.124;23.190;2023-07-20T01:01:49;15.30;99.90
32215;DHT22;18708;53.124;23.190;2023-07-20T01:04:15;15.20;99.90
32215;DHT22;18708;53.124;23.190;2023-07-20T01:09:19;15.40;99.90
32215;DHT22;18708;53.124;23.190;2023-07-20T01:12:02;15.40;99.90
32215;DHT22;18708;53.124;23.190;2023-07-20T01:14:30;15.40;99.90
32215;DHT22;18708;53.124;23.190;2023-07-20T01:16:57;15.40;99.90
32215;DHT22;18708;53.124;23.190;2023-07-20T01:19:22;15.40;99.90
32215;DHT22;18708;53.124;23.190;2023-07-20T01:22:09;15.40;99.90
32215;DHT22;18708;53.124;23.190;2023-07-20T01:32:18;15.10;99.90
32215;DHT22;18708;53.124;23.190;2023-07-20T01:34:44;15.10;99.90
32215;DHT22;18708;53.124;23.190;2023-07-20T01:37:10;15.10;99.90
32215;DHT22;18708;53.124;23.190;2023-07-20T01:39:37;15.00;99.90
32215;DHT22;18708;53.124;23.190;2023-07-20T01:42:03;15.10;99.90
32215;DHT22;18708;53.124;23.190;2023-07-20T01:44:29;15.10;99.90
32215;DHT22;18708;53.124;23.190;2023-07-20T01:46:54;15.00;99.90
32215;DHT22;18708;53.124;23.190;2023-07-20T01:49:20;15.00;99.90
32215;DHT22;18708;53.124;23.190;2023-07-20T01:51:45;15.00;99.90
32215;DHT22;18708;53.124;23.190;2023-07-20T01:54:11;14.90;99.90
32215;DHT22;18708;53.124;23.190;2023-07-20T01:56:36;14.90;99.90
32215;DHT22;18708;53.124;23.190;2023-07-20T01:59:03;14.90;99.90
32215;DHT22;18708;53.124;23.190;2023-07-20T02:01:28;14.90;99.90
32215;DHT22;18708;53.124;23.190;2023-07-20T02:03:54;14.80;99.90
32215;DHT22;18708;53.124;23.190;2023-07-20T02:06:19;14.80;99.90
32215;DHT22;18708;53.124;23.190;2023-07-20T02:08:45;14.70;99.90
32215;DHT22;18708;53.124;23.190;2023-07-20T02:11:11;14.70;99.90
32215;DHT22;18708;53.124;23.190;2023-07-20T02:13:36;14.70;99.90
32215;DHT22;18708;53.124;23.190;2023-07-20T02:16:02;14.70;99.90
32215;DHT22;18708;53.124;23.190;2023-07-20T02:18:27;15.00;99.90
32215;DHT22;18708;53.124;23.190;2023-07-20T02:20:53;15.00;99.90
32215;DHT22;18708;53.124;23.190;2023-07-20T02:23:19;14.90;99.90
32215;DHT22;18708;53.124;23.190;2023-07-20T02:25:45;14.90;99.90
32215;DHT22;18708;53.124;23.190;2023-07-20T02:28:12;14.90;99.90
32215;DHT22;18708;53.124;23.190;2023-07-20T02:30:38;14.80;99.90
32215;DHT22;18708;53.124;23.190;2023-07-20T02:33:04;14.90;99.90
32215;DHT22;18708;53.124;23.190;2023-07-20T02:35:32;14.90;99.90
32215;DHT22;18708;53.124;23.190;2023-07-20T02:37:57;14.80;99.90
32215;DHT22;18708;53.124;23.190;2023-07-20T02:40:23;14.70;99.90
32215;DHT22;18708;53.124;23.190;2023-07-20T02:42:48;14.70;99.90
32215;DHT22;18708;53.124;23.190;2023-07-20T02:45:14;14.60;99.90
32215;DHT22;18708;53.124;23.190;2023-07-20T02:47:39;14.60;99.90
32215;DHT22;18708;53.124;23.190;2023-07-20T02:50:06;14.70;99.90
32215;DHT22;18708;53.124;23.190;2023-07-20T02:52:32;14.70;99.90
32215;DHT22;18708;53.124;23.190;2023-07-20T02:54:57;14.70;99.90
32215;DHT22;18708;53.124;23.190;2023-07-20T02:57:23;14.70;99.90
32215;DHT22;18708;53.124;23.190;2023-07-20T02:59:48;14.70;99.90
32215;DHT22;18708;53.124;23.190;2023-07-20T03:02:14;14.70;99.90
32215;DHT22;18708;53.124;23.190;2023-07-20T03:04:39;14.70;99.90
32215;DHT22;18708;53.124;23.190;2023-07-20T03:07:05;14.70;99.90
32215;DHT22;18708;53.124;23.190;2023-07-20T03:09:31;14.60;99.90
32215;DHT22;18708;53.124;23.190;2023-07-20T03:11:56;14.60;99.90
32215;DHT22;18708;53.124;23.190;2023-07-20T03:14:22;14.50;99.90
32215;DHT22;18708;53.124;23.190;2023-07-20T03:16:49;14.60;99.90
32215;DHT22;18708;53.124;23.190;2023-07-20T03:19:14;14.60;99.90
32215;DHT22;18708;53.124;23.190;2023-07-20T03:21:40;14.70;99.90
32215;DHT22;18708;53.124;23.190;2023-07-20T03:24:09;14.70;99.90
32215;DHT22;18708;53.124;23.190;2023-07-20T03:26:35;14.80;99.90
32215;DHT22;18708;53.124;23.190;2023-07-20T03:29:00;14.80;99.90
32215;DHT22;18708;53.124;23.190;2023-07-20T03:31:26;14.90;99.90
32215;DHT22;18708;53.124;23.190;2023-07-20T03:33:52;15.00;99.90
32215;DHT22;18708;53.124;23.190;2023-07-20T03:36:17;15.00;99.90
32215;DHT22;18708;53.124;23.190;2023-07-20T03:38:43;15.10;99.90
32215;DHT22;18708;53.124;23.190;2023-07-20T03:41:08;15.10;99.90
32215;DHT22;18708;53.124;23.190;2023-07-20T03:43:34;15.20;99.90
32215;DHT22;18708;53.124;23.190;2023-07-20T03:46:00;15.20;99.90
32215;DHT22;18708;53.124;23.190;2023-07-20T03:48:25;15.30;99.90
32215;DHT22;18708;53.124;23.190;2023-07-20T03:50:52;15.30;99.90
32215;DHT22;18708;53.124;23.190;2023-07-20T03:53:18;15.40;99.90
32215;DHT22;18708;53.124;23.190;2023-07-20T03:55:47;15.50;99.90
32215;DHT22;18708;53.124;23.190;2023-07-20T03:58:13;15.60;99.90
32215;DHT22;18708;53.124;23.190;2023-07-20T04:00:39;15.50;99.90
32215;DHT22;18708;53.124;23.190;2023-07-20T04:03:05;15.60;99.90
32215;DHT22;18708;53.124;23.190;2023-07-20T04:05:31;15.70;99.90
32215;DHT22;18708;53.124;23.190;2023-07-20T04:07:56;15.70;99.90
32215;DHT22;18708;53.124;23.190;2023-07-20T04:10:22;15.80;99.90
32215;DHT22;18708;53.124;23.190;2023-07-20T04:12:47;15.70;99.90
32215;DHT22;18708;53.124;23.190;2023-07-20T04:15:13;15.70;99.90
32215;DHT22;18708;53.124;23.190;2023-07-20T04:17:39;15.80;99.90
32215;DHT22;18708;53.124;23.190;2023-07-20T04:20:06;15.80;99.90
32215;DHT22;18708;53.124;23.190;2023-07-20T04:22:32;15.80;99.90
32215;DHT22;18708;53.124;23.190;2023-07-20T04:24:57;15.80;99.90
32215;DHT22;18708;53.124;23.190;2023-07-20T04:27:22;15.60;99.90
32215;DHT22;18708;53.124;23.190;2023-07-20T04:29:48;15.70;99.90
32215;DHT22;18708;53.124;23.190;2023-07-20T04:32:14;15.70;99.90
32215;DHT22;18708;53.124;23.190;2023-07-20T04:34:39;15.80;99.90
32215;DHT22;18708;53.124;23.190;2023-07-20T04:37:05;15.80;99.90
32215;DHT22;18708;53.124;23.190;2023-07-20T04:39:30;15.80;99.90
32215;DHT22;18708;53.124;23.190;2023-07-20T04:41:56;15.80;99.90
32215;DHT22;18708;53.124;23.190;2023-07-20T04:44:22;15.80;99.90
32215;DHT22;18708;53.124;23.190;2023-07-20T04:46:47;15.90;99.90
32215;DHT22;18708;53.124;23.190;2023-07-20T04:49:13;16.00;99.90
32215;DHT22;18708;53.124;23.190;2023-07-20T04:51:38;16.10;99.90
32215;DHT22;18708;53.124;23.190;2023-07-20T04:54:04;16.10;99.90
32215;DHT22;18708;53.124;23.190;2023-07-20T04:56:30;16.10;99.90
32215;DHT22;18708;53.124;23.190;2023-07-20T04:58:56;16.20;99.90
32215;DHT22;18708;53.124;23.190;2023-07-20T05:01:22;16.30;99.90
32215;DHT22;18708;53.124;23.190;2023-07-20T05:03:48;16.20;99.90
32215;DHT22;18708;53.124;23.190;2023-07-20T05:06:13;16.30;99.90
32215;DHT22;18708;53.124;23.190;2023-07-20T05:08:39;16.30;99.90
32215;DHT22;18708;53.124;23.190;2023-07-20T05:11:04;16.30;99.90
32215;DHT22;18708;53.124;23.190;2023-07-20T05:13:30;16.40;99.90
32215;DHT22;18708;53.124;23.190;2023-07-20T05:15:55;16.40;1.00
32215;DHT22;18708;53.124;23.190;2023-07-20T05:18:21;16.40;1.00
32215;DHT22;18708;53.124;23.190;2023-07-20T05:20:47;16.40;99.90
32215;DHT22;18708;53.124;23.190;2023-07-20T05:23:13;16.40;41.90
32215;DHT22;18708;53.124;23.190;2023-07-20T05:25:38;16.50;1.00
32215;DHT22;18708;53.124;23.190;2023-07-20T05:28:04;16.50;1.00
32215;DHT22;18708;53.124;23.190;2023-07-20T05:30:29;16.60;1.00
32215;DHT22;18708;53.124;23.190;2023-07-20T05:32:55;16.50;1.00
32215;DHT22;18708;53.124;23.190;2023-07-20T05:35:23;16.50;1.00
32215;DHT22;18708;53.124;23.190;2023-07-20T05:37:48;16.50;99.90
32215;DHT22;18708;53.124;23.190;2023-07-20T05:40:14;16.50;99.90
32215;DHT22;18708;53.124;23.190;2023-07-20T05:42:43;16.60;1.00
32215;DHT22;18708;53.124;23.190;2023-07-20T05:45:09;16.60;1.00
32215;DHT22;18708;53.124;23.190;2023-07-20T05:47:34;16.50;1.00
32215;DHT22;18708;53.124;23.190;2023-07-20T05:50:00;16.50;1.00
32215;DHT22;18708;53.124;23.190;2023-07-20T05:52:26;16.40;99.90
32215;DHT22;18708;53.124;23.190;2023-07-20T05:54:51;16.50;1.00
32215;DHT22;18708;53.124;23.190;2023-07-20T05:57:17;16.60;99.90
32215;DHT22;18708;53.124;23.190;2023-07-20T05:59:42;16.60;99.90
32215;DHT22;18708;53.124;23.190;2023-07-20T06:02:10;16.60;99.90
32215;DHT22;18708;53.124;23.190;2023-07-20T06:04:35;16.60;1.00
32215;DHT22;18708;53.124;23.190;2023-07-20T06:07:01;16.40;99.90
32215;DHT22;18708;53.124;23.190;2023-07-20T06:09:26;16.50;99.90
32215;DHT22;18708;53.124;23.190;2023-07-20T06:11:52;16.60;1.00
32215;DHT22;18708;53.124;23.190;2023-07-20T06:14:18;16.70;1.00
32215;DHT22;18708;53.124;23.190;2023-07-20T06:16:44;16.70;99.90
32215;DHT22;18708;53.124;23.190;2023-07-20T06:19:09;16.70;1.00
32215;DHT22;18708;53.124;23.190;2023-07-20T06:21:37;16.60;1.00
32215;DHT22;18708;53.124;23.190;2023-07-20T06:24:05;16.70;1.00
32215;DHT22;18708;53.124;23.190;2023-07-20T06:26:31;16.60;91.60
32215;DHT22;18708;53.124;23.190;2023-07-20T06:28:57;16.60;48.40
32215;DHT22;18708;53.124;23.190;2023-07-20T06:31:23;16.50;1.00
32215;DHT22;18708;53.124;23.190;2023-07-20T06:33:48;16.60;1.00
32215;DHT22;18708;53.124;23.190;2023-07-20T06:36:17;16.50;1.00
32215;DHT22;18708;53.124;23.190;2023-07-20T06:38:42;16.40;1.00
32215;DHT22;18708;53.124;23.190;2023-07-20T06:41:08;16.40;99.90
32215;DHT22;18708;53.124;23.190;2023-07-20T06:43:33;16.30;95.10
32215;DHT22;18708;53.124;23.190;2023-07-20T06:46:00;16.40;60.40
32215;DHT22;18708;53.124;23.190;2023-07-20T06:48:25;16.40;99.90
32215;DHT22;18708;53.124;23.190;2023-07-20T06:50:51;16.50;35.70
32215;DHT22;18708;53.124;23.190;2023-07-20T06:53:16;16.50;99.90
32215;DHT22;18708;53.124;23.190;2023-07-20T06:55:43;16.50;49.00
32215;DHT22;18708;53.124;23.190;2023-07-20T06:58:09;16.70;99.90
32215;DHT22;18708;53.124;23.190;2023-07-20T07:00:34;16.70;99.90
32215;DHT22;18708;53.124;23.190;2023-07-20T07:03:00;16.80;1.00
32215;DHT22;18708;53.124;23.190;2023-07-20T07:05:26;16.90;99.90
32215;DHT22;18708;53.124;23.190;2023-07-20T07:07:51;16.90;63.60
32215;DHT22;18708;53.124;23.190;2023-07-20T07:10:17;16.90;46.10
32215;DHT22;18708;53.124;23.190;2023-07-20T07:12:43;17.00;1.00
32215;DHT22;18708;53.124;23.190;2023-07-20T07:15:09;17.10;1.00
32215;DHT22;18708;53.124;23.190;2023-07-20T07:17:36;17.30;1.00
32215;DHT22;18708;53.124;23.190;2023-07-20T07:20:02;17.40;40.80
32215;DHT22;18708;53.124;23.190;2023-07-20T07:22:28;17.60;43.60
32215;DHT22;18708;53.124;23.190;2023-07-20T07:24:54;17.60;66.20
32215;DHT22;18708;53.124;23.190;2023-07-20T07:27:20;17.70;80.70
32215;DHT22;18708;53.124;23.190;2023-07-20T07:29:45;17.70;99.90
32215;DHT22;18708;53.124;23.190;2023-07-20T07:32:12;17.80;1.00
32215;DHT22;18708;53.124;23.190;2023-07-20T07:34:37;17.90;1.00
32215;DHT22;18708;53.124;23.190;2023-07-20T07:37:06;17.90;1.00
32215;DHT22;18708;53.124;23.190;2023-07-20T07:39:32;18.00;99.90
32215;DHT22;18708;53.124;23.190;2023-07-20T07:41:57;18.00;99.90
32215;DHT22;18708;53.124;23.190;2023-07-20T07:44:23;17.90;99.90
32215;DHT22;18708;53.124;23.190;2023-07-20T07:46:49;17.90;99.90
32215;DHT22;18708;53.124;23.190;2023-07-20T07:49:15;17.90;99.90
32215;DHT22;18708;53.124;23.190;2023-07-20T07:51:40;17.80;99.90
32215;DHT22;18708;53.124;23.190;2023-07-20T07:54:06;17.80;99.90
32215;DHT22;18708;53.124;23.190;2023-07-20T07:56:31;17.90;99.90
32215;DHT22;18708;53.124;23.190;2023-07-20T07:58:57;17.90;99.90
32215;DHT22;18708;53.124;23.190;2023-07-20T08:01:23;18.00;99.90
32215;DHT22;18708;53.124;23.190;2023-07-20T08:03:48;18.00;99.90
32215;DHT22;18708;53.124;23.190;2023-07-20T08:06:14;18.00;99.90
32215;DHT22;18708;53.124;23.190;2023-07-20T08:08:39;18.00;99.90
32215;DHT22;18708;53.124;23.190;2023-07-20T08:11:05;17.90;99.90
32215;DHT22;18708;53.124;23.190;2023-07-20T08:13:31;18.00;99.90
32215;DHT22;18708;53.124;23.190;2023-07-20T08:15:57;18.00;1.00
32215;DHT22;18708;53.124;23.190;2023-07-20T08:18:22;18.00;1.00
32215;DHT22;18708;53.124;23.190;2023-07-20T08:20:48;17.80;99.90
32215;DHT22;18708;53.124;23.190;2023-07-20T08:23:14;17.80;1.00
32215;DHT22;18708;53.124;23.190;2023-07-20T08:25:40;17.80;99.90
32215;DHT22;18708;53.124;23.190;2023-07-20T08:28:11;17.90;99.90
32215;DHT22;18708;53.124;23.190;2023-07-20T08:30:47;17.80;99.90
32215;DHT22;18708;53.124;23.190;2023-07-20T08:33:13;17.60;1.00
32215;DHT22;18708;53.124;23.190;2023-07-20T08:35:39;17.50;1.00
32215;DHT22;18708;53.124;23.190;2023-07-20T08:38:04;17.50;1.00
32215;DHT22;18708;53.124;23.190;2023-07-20T08:40:34;17.50;99.90
32215;DHT22;18708;53.124;23.190;2023-07-20T08:43:03;17.50;1.00
32215;DHT22;18708;53.124;23.190;2023-07-20T08:45:29;17.50;1.00
32215;DHT22;18708;53.124;23.190;2023-07-20T08:47:56;17.50;99.90
32215;DHT22;18708;53.124;23.190;2023-07-20T08:50:22;17.60;99.90
32215;DHT22;18708;53.124;23.190;2023-07-20T08:52:48;17.80;1.00
32215;DHT22;18708;53.124;23.190;2023-07-20T08:55:15;17.70;99.90
32215;DHT22;18708;53.124;23.190;2023-07-20T08:57:41;17.80;1.00
32215;DHT22;18708;53.124;23.190;2023-07-20T09:00:09;17.80;99.90
32215;DHT22;18708;53.124;23.190;2023-07-20T09:02:38;17.60;99.90
32215;DHT22;18708;53.124;23.190;2023-07-20T09:05:05;17.60;1.00
32215;DHT22;18708;53.124;23.190;2023-07-20T09:07:32;17.30;1.00
32215;DHT22;18708;53.124;23.190;2023-07-20T09:09:58;17.10;1.00
32215;DHT22;18708;53.124;23.190;2023-07-20T09:12:24;16.90;99.90
32215;DHT22;18708;53.124;23.190;2023-07-20T09:14:49;16.90;99.90
32215;DHT22;18708;53.124;23.190;2023-07-20T09:17:15;17.10;99.90
32215;DHT22;18708;53.124;23.190;2023-07-20T09:19:47;17.20;99.90
32215;DHT22;18708;53.124;23.190;2023-07-20T09:22:13;17.20;99.90
32215;DHT22;18708;53.124;23.190;2023-07-20T09:24:38;17.20;99.90
32215;DHT22;18708;53.124;23.190;2023-07-20T09:27:04;17.30;99.90
32215;DHT22;18708;53.124;23.190;2023-07-20T09:29:30;17.30;99.90
32215;DHT22;18708;53.124;23.190;2023-07-20T09:32:02;17.20;99.90
32215;DHT22;18708;53.124;23.190;2023-07-20T09:34:31;17.30;99.90
32215;DHT22;18708;53.124;23.190;2023-07-20T09:37:00;17.30;99.90
32215;DHT22;18708;53.124;23.190;2023-07-20T09:39:26;17.40;99.90
32215;DHT22;18708;53.124;23.190;2023-07-20T09:41:51;17.40;99.90
32215;DHT22;18708;53.124;23.190;2023-07-20T09:44:17;17.40;99.90
32215;DHT22;18708;53.124;23.190;2023-07-20T09:46:44;17.30;99.90
32215;DHT22;18708;53.124;23.190;2023-07-20T09:49:09;17.30;99.90
32215;DHT22;18708;53.124;23.190;2023-07-20T09:51:36;17.40;99.90
32215;DHT22;18708;53.124;23.190;2023-07-20T09:54:01;17.10;99.90
32215;DHT22;18708;53.124;23.190;2023-07-20T09:56:28;16.90;99.90
32215;DHT22;18708;53.124;23.190;2023-07-20T09:58:55;16.80;99.90
32215;DHT22;18708;53.124;23.190;2023-07-20T10:01:21;16.80;99.90
32215;DHT22;18708;53.124;23.190;2023-07-20T10:03:51;16.80;99.90
32215;DHT22;18708;53.124;23.190;2023-07-20T10:06:20;17.00;99.90
32215;DHT22;18708;53.124;23.190;2023-07-20T10:08:45;16.90;99.90
32215;DHT22;18708;53.124;23.190;2023-07-20T10:11:13;16.90;99.90
32215;DHT22;18708;53.124;23.190;2023-07-20T10:13:40;17.00;99.90
32215;DHT22;18708;53.124;23.190;2023-07-20T10:16:07;17.00;99.90
32215;DHT22;18708;53.124;23.190;2023-07-20T10:21:00;17.00;99.90
32215;DHT22;18708;53.124;23.190;2023-07-20T10:23:28;17.00;99.90
32215;DHT22;18708;53.124;23.190;2023-07-20T10:25:54;17.00;99.90
32215;DHT22;18708;53.124;23.190;2023-07-20T10:28:20;17.10;99.90
32215;DHT22;18708;53.124;23.190;2023-07-20T10:30:48;16.80;99.90
32215;DHT22;18708;53.124;23.190;2023-07-20T10:33:14;16.90;99.90
32215;DHT22;18708;53.124;23.190;2023-07-20T10:36:01;16.90;99.90
32215;DHT22;18708;53.124;23.190;2023-07-20T10:41:20;16.70;99.90
32215;DHT22;18708;53.124;23.190;2023-07-20T10:43:46;16.80;99.90
32215;DHT22;18708;53.124;23.190;2023-07-20T10:46:12;16.90;99.90
32215;DHT22;18708;53.124;23.190;2023-07-20T10:51:22;16.50;99.90
32215;DHT22;18708;53.124;23.190;2023-07-20T10:53:49;16.70;99.90
32215;DHT22;18708;53.124;23.190;2023-07-20T10:56:19;16.50;99.90
32215;DHT22;18708;53.124;23.190;2023-07-20T10:58:45;16.50;99.90
32215;DHT22;18708;53.124;23.190;2023-07-20T11:01:13;16.40;99.90
32215;DHT22;18708;53.124;23.190;2023-07-20T11:03:39;16.50;99.90
32215;DHT22;18708;53.124;23.190;2023-07-20T11:08:50;16.70;99.90
32215;DHT22;18708;53.124;23.190;2023-07-20T11:11:27;16.60;99.90
32215;DHT22;18708;53.124;23.190;2023-07-20T11:16:37;16.60;99.90
32215;DHT22;18708;53.124;23.190;2023-07-20T11:19:03;16.60;99.90
32215;DHT22;18708;53.124;23.190;2023-07-20T11:21:29;16.60;99.90
32215;DHT22;18708;53.124;23.190;2023-07-20T11:23:55;16.70;99.90
32215;DHT22;18708;53.124;23.190;2023-07-20T11:26:21;16.70;99.90
32215;DHT22;18708;53.124;23.190;2023-07-20T11:28:50;16.60;99.90
32215;DHT22;18708;53.124;23.190;2023-07-20T11:31:19;16.70;99.90
32215;DHT22;18708;53.124;23.190;2023-07-20T11:33:45;16.80;99.90
32215;DHT22;18708;53.124;23.190;2023-07-20T11:36:11;16.80;99.90
32215;DHT22;18708;53.124;23.190;2023-07-20T11:38:38;17.00;99.90
32215;DHT22;18708;53.124;23.190;2023-07-20T11:41:04;17.30;99.90
32215;DHT22;18708;53.124;23.190;2023-07-20T11:43:30;17.50;99.90
32215;DHT22;18708;53.124;23.190;2023-07-20T11:45:55;17.60;99.90
32215;DHT22;18708;53.124;23.190;2023-07-20T11:48:21;17.60;1.00
32215;DHT22;18708;53.124;23.190;2023-07-20T11:50:47;17.60;1.00
32215;DHT22;18708;53.124;23.190;2023-07-20T11:53:13;17.80;99.90
32215;DHT22;18708;53.124;23.190;2023-07-20T11:55:40;17.90;1.00
32215;DHT22;18708;53.124;23.190;2023-07-20T11:58:06;17.90;1.00
32215;DHT22;18708;53.124;23.190;2023-07-20T12:00:34;17.80;1.00
32215;DHT22;18708;53.124;23.190;2023-07-20T12:03:00;18.00;99.90
32215;DHT22;18708;53.124;23.190;2023-07-20T12:05:26;18.30;27.30
32215;DHT22;18708;53.124;23.190;2023-07-20T12:07:51;18.30;99.90
32215;DHT22;18708;53.124;23.190;2023-07-20T12:10:23;18.80;99.90
32215;DHT22;18708;53.124;23.190;2023-07-20T12:12:49;19.60;1.00
32215;DHT22;18708;53.124;23.190;2023-07-20T12:15:21;20.30;1.00
32215;DHT22;18708;53.124;23.190;2023-07-20T12:17:50;20.90;1.00
32215;DHT22;18708;53.124;23.190;2023-07-20T12:20:29;21.60;1.00
32215;DHT22;18708;53.124;23.190;2023-07-20T12:22:56;21.20;99.90
32215;DHT22;18708;53.124;23.190;2023-07-20T12:25:22;21.80;99.90
32215;DHT22;18708;53.124;23.190;2023-07-20T12:27:48;22.10;99.90
32215;DHT22;18708;53.124;23.190;2023-07-20T12:30:13;21.70;99.90
32215;DHT22;18708;53.124;23.190;2023-07-20T12:32:39;22.20;99.90
32215;DHT22;18708;53.124;23.190;2023-07-20T12:35:05;22.60;99.90
32215;DHT22;18708;53.124;23.190;2023-07-20T12:37:31;22.90;99.90
32215;DHT22;18708;53.124;23.190;2023-07-20T12:39:57;22.30;99.90
32215;DHT22;18708;53.124;23.190;2023-07-20T12:42:22;22.50;99.90
32215;DHT22;18708;53.124;23.190;2023-07-20T12:44:49;22.90;99.90
32215;DHT22;18708;53.124;23.190;2023-07-20T12:47:14;23.20;99.90
32215;DHT22;18708;53.124;23.190;2023-07-20T12:49:40;23.20;99.90
32215;DHT22;18708;53.124;23.190;2023-07-20T12:52:05;23.20;99.90
32215;DHT22;18708;53.124;23.190;2023-07-20T12:54:32;23.20;99.90
32215;DHT22;18708;53.124;23.190;2023-07-20T12:56:58;23.50;99.90
32215;DHT22;18708;53.124;23.190;2023-07-20T12:59:23;23.60;99.90
32215;DHT22;18708;53.124;23.190;2023-07-20T13:01:49;22.50;99.90
32215;DHT22;18708;53.124;23.190;2023-07-20T13:04:14;22.40;99.90
32215;DHT22;18708;53.124;23.190;2023-07-20T13:06:40;22.20;99.90
32215;DHT22;18708;53.124;23.190;2023-07-20T13:09:06;22.40;99.90
32215;DHT22;18708;53.124;23.190;2023-07-20T13:11:32;22.80;99.90
32215;DHT22;18708;53.124;23.190;2023-07-20T13:13:57;23.20;99.90
32215;DHT22;18708;53.124;23.190;2023-07-20T13:16:23;22.80;99.90
32215;DHT22;18708;53.124;23.190;2023-07-20T13:18:48;23.00;99.90
32215;DHT22;18708;53.124;23.190;2023-07-20T13:21:14;22.70;99.90
32215;DHT22;18708;53.124;23.190;2023-07-20T13:23:40;23.20;99.90
32215;DHT22;18708;53.124;23.190;2023-07-20T13:26:05;23.50;99.90
32215;DHT22;18708;53.124;23.190;2023-07-20T13:28:31;23.40;99.90
32215;DHT22;18708;53.124;23.190;2023-07-20T13:30:56;22.50;99.90
32215;DHT22;18708;53.124;23.190;2023-07-20T13:33:22;22.50;99.90
32215;DHT22;18708;53.124;23.190;2023-07-20T13:35:47;22.80;99.90
32215;DHT22;18708;53.124;23.190;2023-07-20T13:38:13;22.70;99.90
32215;DHT22;18708;53.124;23.190;2023-07-20T13:40:38;22.70;99.90
32215;DHT22;18708;53.124;23.190;2023-07-20T13:43:04;22.90;99.90
32215;DHT22;18708;53.124;23.190;2023-07-20T13:45:30;22.50;99.90
32215;DHT22;18708;53.124;23.190;2023-07-20T13:47:55;22.80;99.90
32215;DHT22;18708;53.124;23.190;2023-07-20T13:50:21;23.20;99.90
32215;DHT22;18708;53.124;23.190;2023-07-20T13:52:46;23.20;99.90
32215;DHT22;18708;53.124;23.190;2023-07-20T13:55:12;23.00;99.90
32215;DHT22;18708;53.124;23.190;2023-07-20T13:57:38;23.10;99.90
32215;DHT22;18708;53.124;23.190;2023-07-20T14:00:04;23.30;99.90
32215;DHT22;18708;53.124;23.190;2023-07-20T14:02:29;23.20;99.90
32215;DHT22;18708;53.124;23.190;2023-07-20T14:04:55;23.00;99.90
32215;DHT22;18708;53.124;23.190;2023-07-20T14:07:21;22.90;99.90
32215;DHT22;18708;53.124;23.190;2023-07-20T14:09:47;22.60;99.90
32215;DHT22;18708;53.124;23.190;2023-07-20T14:12:12;21.70;99.90
32215;DHT22;18708;53.124;23.190;2023-07-20T14:14:42;21.30;99.90
32215;DHT22;18708;53.124;23.190;2023-07-20T14:17:07;21.50;99.90
32215;DHT22;18708;53.124;23.190;2023-07-20T14:19:33;21.30;99.90
32215;DHT22;18708;53.124;23.190;2023-07-20T14:21:58;21.20;99.90
32215;DHT22;18708;53.124;23.190;2023-07-20T14:24:27;21.10;99.90
32215;DHT22;18708;53.124;23.190;2023-07-20T14:26:53;21.10;99.90
32215;DHT22;18708;53.124;23.190;2023-07-20T14:29:20;20.90;99.90
32215;DHT22;18708;53.124;23.190;2023-07-20T14:31:45;21.20;99.90
32215;DHT22;18708;53.124;23.190;2023-07-20T14:34:18;21.40;99.90
32215;DHT22;18708;53.124;23.190;2023-07-20T14:36:44;21.70;99.90
32215;DHT22;18708;53.124;23.190;2023-07-20T14:39:10;21.70;99.90
32215;DHT22;18708;53.124;23.190;2023-07-20T14:41:35;21.50;99.90
32215;DHT22;18708;53.124;23.190;2023-07-20T14:44:01;21.30;99.90
32215;DHT22;18708;53.124;23.190;2023-07-20T14:46:27;21.30;99.90
32215;DHT22;18708;53.124;23.190;2023-07-20T14:48:52;21.40;99.90
32215;DHT22;18708;53.124;23.190;2023-07-20T14:51:18;21.20;99.90
32215;DHT22;18708;53.124;23.190;2023-07-20T14:53:44;21.30;99.90
32215;DHT22;18708;53.124;23.190;2023-07-20T14:56:09;21.20;99.90
32215;DHT22;18708;53.124;23.190;2023-07-20T14:58:35;21.40;99.90
32215;DHT22;18708;53.124;23.190;2023-07-20T15:01:01;21.20;99.90
32215;DHT22;18708;53.124;23.190;2023-07-20T15:03:26;21.30;99.90
32215;DHT22;18708;53.124;23.190;2023-07-20T15:05:52;21.30;99.90
32215;DHT22;18708;53.124;23.190;2023-07-20T15:08:18;21.30;99.90
32215;DHT22;18708;53.124;23.190;2023-07-20T15:10:44;21.00;99.90
32215;DHT22;18708;53.124;23.190;2023-07-20T15:13:12;21.00;99.90
32215;DHT22;18708;53.124;23.190;2023-07-20T15:15:37;20.90;99.90
32215;DHT22;18708;53.124;23.190;2023-07-20T15:18:03;20.90;99.90
32215;DHT22;18708;53.124;23.190;2023-07-20T15:20:28;21.00;99.90
32215;DHT22;18708;53.124;23.190;2023-07-20T15:22:57;20.90;99.90
32215;DHT22;18708;53.124;23.190;2023-07-20T15:25:22;20.70;99.90
32215;DHT22;18708;53.124;23.190;2023-07-20T15:27:48;20.70;99.90
32215;DHT22;18708;53.124;23.190;2023-07-20T15:30:14;20.70;99.90
32215;DHT22;18708;53.124;23.190;2023-07-20T15:32:40;20.70;99.90
32215;DHT22;18708;53.124;23.190;2023-07-20T15:35:09;20.60;99.90